sensor_id;sensor_type;location;lat;lon;timestamp;P1;durP1;ratioP1;P2;durP2;ratioP2
45684;SDS011;46836;48.388;16.210;2023-11-21T00:01:16;7.13;;;4.20;;
45684;SDS011;46836;48.388;16.210;2023-11-21T00:03:44;5.25;;;3.85;;
45684;SDS011;46836;48.388;16.210;2023-11-21T00:06:11;7.30;;;4.20;;
45684;SDS011;46836;48.388;16.210;2023-11-21T00:08:38;6.90;;;4.30;;
45684;SDS011;46836;48.388;16.210;2023-11-21T00:11:05;7.28;;;3.67;;
45684;SDS011;46836;48.388;16.210;2023-11-21T00:13:32;5.57;;;4.22;;
45684;SDS011;46836;48.388;16.210;2023-11-21T00:16:00;9.82;;;4.75;;
45684;SDS011;46836;48.388;16.210;2023-11-21T00:18:27;7.95;;;4.85;;
45684;SDS011;46836;48.388;16.210;2023-11-21T00:20:54;6.80;;;4.05;;
45684;SDS011;46836;48.388;16.210;2023-11-21T00:23:21;6.93;;;4.38;;
45684;SDS011;46836;48.388;16.210;2023-11-21T00:25:48;9.13;;;4.60;;
45684;SDS011;46836;48.388;16.210;2023-11-21T00:28:16;6.43;;;3.90;;
45684;SDS011;46836;48.388;16.210;2023-11-21T00:30:43;8.95;;;4.60;;
45684;SDS011;46836;48.388;16.210;2023-11-21T00:33:10;4.78;;;4.28;;
45684;SDS011;46836;48.388;16.210;2023-11-21T00:35:37;6.78;;;4.20;;
45684;SDS011;46836;48.388;16.210;2023-11-21T00:38:04;7.32;;;4.53;;
45684;SDS011;46836;48.388;16.210;2023-11-21T00:40:31;6.00;;;4.40;;
45684;SDS011;46836;48.388;16.210;2023-11-21T00:42:58;8.02;;;3.88;;
45684;SDS011;46836;48.388;16.210;2023-11-21T00:45:27;10.82;;;4.57;;
45684;SDS011;46836;48.388;16.210;2023-11-21T00:47:54;9.00;;;4.75;;
45684;SDS011;46836;48.388;16.210;2023-11-21T00:50:21;5.75;;;4.18;;
45684;SDS011;46836;48.388;16.210;2023-11-21T00:52:48;4.47;;;4.07;;
45684;SDS011;46836;48.388;16.210;2023-11-21T00:55:16;11.25;;;3.70;;
45684;SDS011;46836;48.388;16.210;2023-11-21T00:57:43;8.20;;;5.75;;
45684;SDS011;46836;48.388;16.210;2023-11-21T01:00:10;8.38;;;4.90;;
45684;SDS011;46836;48.388;16.210;2023-11-21T01:02:43;9.25;;;4.70;;
45684;SDS011;46836;48.388;16.210;2023-11-21T01:05:11;11.77;;;5.07;;
45684;SDS011;46836;48.388;16.210;2023-11-21T01:07:38;12.40;;;6.47;;
45684;SDS011;46836;48.388;16.210;2023-11-21T01:10:05;9.00;;;5.53;;
45684;SDS011;46836;48.388;16.210;2023-11-21T01:12:35;10.20;;;6.95;;
45684;SDS011;46836;48.388;16.210;2023-11-21T01:15:04;9.38;;;6.90;;
45684;SDS011;46836;48.388;16.210;2023-11-21T01:17:35;11.38;;;7.28;;
45684;SDS011;46836;48.388;16.210;2023-11-21T01:20:02;11.27;;;6.50;;
45684;SDS011;46836;48.388;16.210;2023-11-21T01:22:34;17.63;;;7.32;;
45684;SDS011;46836;48.388;16.210;2023-11-21T01:25:01;7.80;;;5.63;;
45684;SDS011;46836;48.388;16.210;2023-11-21T01:27:30;8.40;;;6.55;;
45684;SDS011;46836;48.388;16.210;2023-11-21T01:29:58;8.10;;;6.15;;
45684;SDS011;46836;48.388;16.210;2023-11-21T01:32:25;12.38;;;5.47;;
45684;SDS011;46836;48.388;16.210;2023-11-21T01:34:57;10.68;;;4.60;;
45684;SDS011;46836;48.388;16.210;2023-11-21T01:37:24;10.15;;;4.85;;
45684;SDS011;46836;48.388;16.210;2023-11-21T01:39:54;8.23;;;4.20;;
45684;SDS011;46836;48.388;16.210;2023-11-21T01:42:22;9.50;;;4.22;;
45684;SDS011;46836;48.388;16.210;2023-11-21T01:44:49;7.15;;;4.22;;
45684;SDS011;46836;48.388;16.210;2023-11-21T01:47:16;6.80;;;3.80;;
45684;SDS011;46836;48.388;16.210;2023-11-21T01:49:44;7.25;;;4.15;;
45684;SDS011;46836;48.388;16.210;2023-11-21T01:52:13;5.47;;;3.38;;
45684;SDS011;46836;48.388;16.210;2023-11-21T01:54:41;9.15;;;3.72;;
45684;SDS011;46836;48.388;16.210;2023-11-21T01:57:09;5.32;;;3.60;;
45684;SDS011;46836;48.388;16.210;2023-11-21T01:59:36;5.72;;;3.47;;
45684;SDS011;46836;48.388;16.210;2023-11-21T02:02:07;4.20;;;3.55;;
45684;SDS011;46836;48.388;16.210;2023-11-21T02:04:36;4.40;;;3.50;;
45684;SDS011;46836;48.388;16.210;2023-11-21T02:07:04;5.53;;;3.83;;
45684;SDS011;46836;48.388;16.210;2023-11-21T02:09:34;4.43;;;3.30;;
45684;SDS011;46836;48.388;16.210;2023-11-21T02:12:04;5.32;;;3.38;;
45684;SDS011;46836;48.388;16.210;2023-11-21T02:14:32;3.88;;;3.30;;
45684;SDS011;46836;48.388;16.210;2023-11-21T02:16:59;5.70;;;4.25;;
45684;SDS011;46836;48.388;16.210;2023-11-21T02:19:27;7.70;;;4.93;;
45684;SDS011;46836;48.388;16.210;2023-11-21T02:21:57;6.25;;;3.75;;
45684;SDS011;46836;48.388;16.210;2023-11-21T02:24:27;9.63;;;4.00;;
45684;SDS011;46836;48.388;16.210;2023-11-21T02:26:54;7.13;;;4.25;;
45684;SDS011;46836;48.388;16.210;2023-11-21T02:29:22;8.80;;;3.70;;
45684;SDS011;46836;48.388;16.210;2023-11-21T02:31:54;9.23;;;3.92;;
45684;SDS011;46836;48.388;16.210;2023-11-21T02:34:22;10.38;;;3.78;;
45684;SDS011;46836;48.388;16.210;2023-11-21T02:36:52;6.63;;;3.58;;
45684;SDS011;46836;48.388;16.210;2023-11-21T02:39:20;7.63;;;3.90;;
45684;SDS011;46836;48.388;16.210;2023-11-21T02:41:49;9.23;;;4.13;;
45684;SDS011;46836;48.388;16.210;2023-11-21T02:44:16;8.70;;;4.40;;
45684;SDS011;46836;48.388;16.210;2023-11-21T02:46:43;5.43;;;3.92;;
45684;SDS011;46836;48.388;16.210;2023-11-21T02:49:11;7.90;;;5.00;;
45684;SDS011;46836;48.388;16.210;2023-11-21T02:51:38;6.80;;;3.90;;
45684;SDS011;46836;48.388;16.210;2023-11-21T02:54:06;8.90;;;4.28;;
45684;SDS011;46836;48.388;16.210;2023-11-21T02:56:35;9.07;;;4.00;;
45684;SDS011;46836;48.388;16.210;2023-11-21T02:59:02;3.63;;;3.13;;
45684;SDS011;46836;48.388;16.210;2023-11-21T03:01:29;6.05;;;4.20;;
45684;SDS011;46836;48.388;16.210;2023-11-21T03:03:56;4.75;;;3.72;;
45684;SDS011;46836;48.388;16.210;2023-11-21T03:06:23;5.35;;;3.45;;
45684;SDS011;46836;48.388;16.210;2023-11-21T03:08:51;4.78;;;3.78;;
45684;SDS011;46836;48.388;16.210;2023-11-21T03:11:18;5.03;;;3.75;;
45684;SDS011;46836;48.388;16.210;2023-11-21T03:13:45;6.15;;;4.10;;
45684;SDS011;46836;48.388;16.210;2023-11-21T03:16:12;7.45;;;4.28;;
45684;SDS011;46836;48.388;16.210;2023-11-21T03:18:41;6.57;;;4.03;;
45684;SDS011;46836;48.388;16.210;2023-11-21T03:21:08;4.15;;;3.30;;
45684;SDS011;46836;48.388;16.210;2023-11-21T03:23:35;4.85;;;3.63;;
45684;SDS011;46836;48.388;16.210;2023-11-21T03:26:03;5.47;;;3.55;;
45684;SDS011;46836;48.388;16.210;2023-11-21T03:28:30;6.78;;;4.00;;
45684;SDS011;46836;48.388;16.210;2023-11-21T03:30:57;8.45;;;4.43;;
45684;SDS011;46836;48.388;16.210;2023-11-21T03:33:24;4.53;;;3.72;;
45684;SDS011;46836;48.388;16.210;2023-11-21T03:35:52;11.98;;;4.18;;
45684;SDS011;46836;48.388;16.210;2023-11-21T03:38:19;5.78;;;4.32;;
45684;SDS011;46836;48.388;16.210;2023-11-21T03:40:46;6.35;;;3.90;;
45684;SDS011;46836;48.388;16.210;2023-11-21T03:43:14;8.38;;;3.95;;
45684;SDS011;46836;48.388;16.210;2023-11-21T03:45:41;6.57;;;4.45;;
45684;SDS011;46836;48.388;16.210;2023-11-21T03:48:08;7.07;;;3.50;;
45684;SDS011;46836;48.388;16.210;2023-11-21T03:50:35;4.88;;;3.80;;
45684;SDS011;46836;48.388;16.210;2023-11-21T03:53:02;9.95;;;4.10;;
45684;SDS011;46836;48.388;16.210;2023-11-21T03:55:31;6.97;;;3.88;;
45684;SDS011;46836;48.388;16.210;2023-11-21T03:57:58;5.60;;;3.92;;
45684;SDS011;46836;48.388;16.210;2023-11-21T04:00:25;8.25;;;4.20;;
45684;SDS011;46836;48.388;16.210;2023-11-21T04:02:53;7.22;;;4.15;;
45684;SDS011;46836;48.388;16.210;2023-11-21T04:05:20;6.88;;;3.55;;
45684;SDS011;46836;48.388;16.210;2023-11-21T04:07:51;6.22;;;3.58;;
45684;SDS011;46836;48.388;16.210;2023-11-21T04:10:18;7.97;;;3.80;;
45684;SDS011;46836;48.388;16.210;2023-11-21T04:12:46;6.45;;;4.13;;
45684;SDS011;46836;48.388;16.210;2023-11-21T04:15:13;7.28;;;4.50;;
45684;SDS011;46836;48.388;16.210;2023-11-21T04:17:41;6.40;;;3.83;;
45684;SDS011;46836;48.388;16.210;2023-11-21T04:20:09;5.65;;;4.30;;
45684;SDS011;46836;48.388;16.210;2023-11-21T04:22:40;5.25;;;4.07;;
45684;SDS011;46836;48.388;16.210;2023-11-21T04:25:11;5.38;;;3.58;;
45684;SDS011;46836;48.388;16.210;2023-11-21T04:27:40;5.55;;;4.15;;
45684;SDS011;46836;48.388;16.210;2023-11-21T04:30:10;6.40;;;3.35;;
45684;SDS011;46836;48.388;16.210;2023-11-21T04:32:38;13.52;;;4.20;;
45684;SDS011;46836;48.388;16.210;2023-11-21T04:35:06;5.38;;;3.70;;
45684;SDS011;46836;48.388;16.210;2023-11-21T04:37:35;7.22;;;4.18;;
45684;SDS011;46836;48.388;16.210;2023-11-21T04:40:02;7.78;;;3.90;;
45684;SDS011;46836;48.388;16.210;2023-11-21T04:42:34;4.72;;;3.80;;
45684;SDS011;46836;48.388;16.210;2023-11-21T04:45:03;6.25;;;4.60;;
45684;SDS011;46836;48.388;16.210;2023-11-21T04:47:35;6.95;;;4.32;;
45684;SDS011;46836;48.388;16.210;2023-11-21T04:50:03;5.90;;;3.53;;
45684;SDS011;46836;48.388;16.210;2023-11-21T04:52:32;5.85;;;3.97;;
45684;SDS011;46836;48.388;16.210;2023-11-21T04:54:59;9.00;;;4.60;;
45684;SDS011;46836;48.388;16.210;2023-11-21T04:57:28;6.90;;;4.15;;
45684;SDS011;46836;48.388;16.210;2023-11-21T04:59:55;7.85;;;4.93;;
45684;SDS011;46836;48.388;16.210;2023-11-21T05:02:22;10.48;;;4.35;;
45684;SDS011;46836;48.388;16.210;2023-11-21T05:05:01;5.63;;;4.15;;
45684;SDS011;46836;48.388;16.210;2023-11-21T05:07:29;9.65;;;5.45;;
45684;SDS011;46836;48.388;16.210;2023-11-21T05:09:58;6.45;;;4.40;;
45684;SDS011;46836;48.388;16.210;2023-11-21T05:12:25;7.30;;;4.88;;
45684;SDS011;46836;48.388;16.210;2023-11-21T05:14:52;8.20;;;4.95;;
45684;SDS011;46836;48.388;16.210;2023-11-21T05:17:19;7.53;;;4.57;;
45684;SDS011;46836;48.388;16.210;2023-11-21T05:19:46;4.95;;;4.45;;
45684;SDS011;46836;48.388;16.210;2023-11-21T05:22:15;5.97;;;4.80;;
45684;SDS011;46836;48.388;16.210;2023-11-21T05:24:43;6.35;;;4.95;;
45684;SDS011;46836;48.388;16.210;2023-11-21T05:27:10;6.93;;;5.30;;
45684;SDS011;46836;48.388;16.210;2023-11-21T05:29:37;7.03;;;5.00;;
45684;SDS011;46836;48.388;16.210;2023-11-21T05:32:04;7.13;;;4.20;;
45684;SDS011;46836;48.388;16.210;2023-11-21T05:34:31;9.30;;;5.28;;
45684;SDS011;46836;48.388;16.210;2023-11-21T05:36:59;10.93;;;5.13;;
45684;SDS011;46836;48.388;16.210;2023-11-21T05:39:26;6.85;;;4.32;;
45684;SDS011;46836;48.388;16.210;2023-11-21T05:41:54;11.05;;;5.30;;
45684;SDS011;46836;48.388;16.210;2023-11-21T05:44:21;9.35;;;4.70;;
45684;SDS011;46836;48.388;16.210;2023-11-21T05:46:50;7.90;;;6.05;;
45684;SDS011;46836;48.388;16.210;2023-11-21T05:49:17;8.68;;;6.10;;
45684;SDS011;46836;48.388;16.210;2023-11-21T05:51:48;10.70;;;6.50;;
45684;SDS011;46836;48.388;16.210;2023-11-21T05:54:15;11.15;;;6.90;;
45684;SDS011;46836;48.388;16.210;2023-11-21T05:56:43;11.15;;;6.45;;
45684;SDS011;46836;48.388;16.210;2023-11-21T05:59:10;12.43;;;6.45;;
45684;SDS011;46836;48.388;16.210;2023-11-21T06:01:38;7.35;;;6.15;;
45684;SDS011;46836;48.388;16.210;2023-11-21T06:04:05;8.10;;;5.70;;
45684;SDS011;46836;48.388;16.210;2023-11-21T06:06:35;8.77;;;5.80;;
45684;SDS011;46836;48.388;16.210;2023-11-21T06:09:03;10.00;;;7.15;;
45684;SDS011;46836;48.388;16.210;2023-11-21T06:11:30;8.18;;;5.88;;
45684;SDS011;46836;48.388;16.210;2023-11-21T06:13:57;7.90;;;7.10;;
45684;SDS011;46836;48.388;16.210;2023-11-21T06:16:24;12.52;;;7.60;;
45684;SDS011;46836;48.388;16.210;2023-11-21T06:18:52;10.75;;;6.93;;
45684;SDS011;46836;48.388;16.210;2023-11-21T06:21:19;13.88;;;7.72;;
45684;SDS011;46836;48.388;16.210;2023-11-21T06:23:46;9.88;;;7.88;;
45684;SDS011;46836;48.388;16.210;2023-11-21T06:26:16;9.98;;;7.38;;
45684;SDS011;46836;48.388;16.210;2023-11-21T06:28:45;14.50;;;8.23;;
45684;SDS011;46836;48.388;16.210;2023-11-21T06:31:12;10.25;;;8.18;;
45684;SDS011;46836;48.388;16.210;2023-11-21T06:33:40;11.02;;;8.07;;
45684;SDS011;46836;48.388;16.210;2023-11-21T06:36:08;9.07;;;6.90;;
45684;SDS011;46836;48.388;16.210;2023-11-21T06:38:38;9.40;;;6.65;;
45684;SDS011;46836;48.388;16.210;2023-11-21T06:41:05;11.13;;;8.30;;
45684;SDS011;46836;48.388;16.210;2023-11-21T06:43:33;15.10;;;7.28;;
45684;SDS011;46836;48.388;16.210;2023-11-21T06:46:01;13.60;;;8.82;;
45684;SDS011;46836;48.388;16.210;2023-11-21T06:48:28;11.23;;;8.88;;
45684;SDS011;46836;48.388;16.210;2023-11-21T06:50:56;17.63;;;10.05;;
45684;SDS011;46836;48.388;16.210;2023-11-21T06:53:23;15.02;;;9.68;;
45684;SDS011;46836;48.388;16.210;2023-11-21T06:55:51;17.10;;;10.52;;
45684;SDS011;46836;48.388;16.210;2023-11-21T06:58:18;19.52;;;9.70;;
45684;SDS011;46836;48.388;16.210;2023-11-21T07:00:45;17.02;;;11.05;;
45684;SDS011;46836;48.388;16.210;2023-11-21T07:03:15;15.35;;;9.90;;
45684;SDS011;46836;48.388;16.210;2023-11-21T07:05:42;11.68;;;8.95;;
45684;SDS011;46836;48.388;16.210;2023-11-21T07:08:09;14.50;;;8.98;;
45684;SDS011;46836;48.388;16.210;2023-11-21T07:10:36;27.38;;;19.35;;
45684;SDS011;46836;48.388;16.210;2023-11-21T07:13:04;22.40;;;15.07;;
45684;SDS011;46836;48.388;16.210;2023-11-21T07:15:31;23.52;;;15.82;;
45684;SDS011;46836;48.388;16.210;2023-11-21T07:17:59;20.48;;;12.50;;
45684;SDS011;46836;48.388;16.210;2023-11-21T07:20:26;36.17;;;28.38;;
45684;SDS011;46836;48.388;16.210;2023-11-21T07:22:54;33.35;;;26.25;;
45684;SDS011;46836;48.388;16.210;2023-11-21T07:25:22;32.00;;;22.77;;
45684;SDS011;46836;48.388;16.210;2023-11-21T07:27:49;15.18;;;11.45;;
45684;SDS011;46836;48.388;16.210;2023-11-21T07:30:16;14.70;;;9.35;;
45684;SDS011;46836;48.388;16.210;2023-11-21T07:32:44;12.23;;;8.82;;
45684;SDS011;46836;48.388;16.210;2023-11-21T07:35:11;18.27;;;9.45;;
45684;SDS011;46836;48.388;16.210;2023-11-21T07:37:38;10.05;;;8.20;;
45684;SDS011;46836;48.388;16.210;2023-11-21T07:40:05;12.35;;;8.05;;
45684;SDS011;46836;48.388;16.210;2023-11-21T07:42:35;12.15;;;8.60;;
45684;SDS011;46836;48.388;16.210;2023-11-21T07:45:03;10.05;;;7.82;;
45684;SDS011;46836;48.388;16.210;2023-11-21T07:47:31;11.02;;;7.88;;
45684;SDS011;46836;48.388;16.210;2023-11-21T07:50:04;12.18;;;8.15;;
45684;SDS011;46836;48.388;16.210;2023-11-21T07:52:34;14.80;;;10.25;;
45684;SDS011;46836;48.388;16.210;2023-11-21T07:55:01;11.10;;;8.23;;
45684;SDS011;46836;48.388;16.210;2023-11-21T07:57:28;9.23;;;8.18;;
45684;SDS011;46836;48.388;16.210;2023-11-21T07:59:55;10.10;;;6.30;;
45684;SDS011;46836;48.388;16.210;2023-11-21T08:02:23;9.82;;;7.10;;
45684;SDS011;46836;48.388;16.210;2023-11-21T08:04:50;9.18;;;7.07;;
45684;SDS011;46836;48.388;16.210;2023-11-21T08:07:18;10.80;;;7.68;;
45684;SDS011;46836;48.388;16.210;2023-11-21T08:09:45;9.65;;;6.60;;
45684;SDS011;46836;48.388;16.210;2023-11-21T08:12:15;12.45;;;6.90;;
45684;SDS011;46836;48.388;16.210;2023-11-21T08:14:42;19.20;;;6.70;;
45684;SDS011;46836;48.388;16.210;2023-11-21T08:17:10;8.60;;;5.78;;
45684;SDS011;46836;48.388;16.210;2023-11-21T08:19:40;10.68;;;6.07;;
45684;SDS011;46836;48.388;16.210;2023-11-21T08:22:07;7.25;;;6.28;;
45684;SDS011;46836;48.388;16.210;2023-11-21T08:24:34;12.38;;;6.30;;
45684;SDS011;46836;48.388;16.210;2023-11-21T08:27:02;13.35;;;7.00;;
45684;SDS011;46836;48.388;16.210;2023-11-21T08:29:30;11.23;;;6.15;;
45684;SDS011;46836;48.388;16.210;2023-11-21T08:31:58;13.00;;;5.60;;
45684;SDS011;46836;48.388;16.210;2023-11-21T08:34:26;12.48;;;5.90;;
45684;SDS011;46836;48.388;16.210;2023-11-21T08:36:55;8.90;;;5.35;;
45684;SDS011;46836;48.388;16.210;2023-11-21T08:39:24;7.45;;;5.20;;
45684;SDS011;46836;48.388;16.210;2023-11-21T08:41:51;7.40;;;4.80;;
45684;SDS011;46836;48.388;16.210;2023-11-21T08:44:18;8.57;;;4.93;;
45684;SDS011;46836;48.388;16.210;2023-11-21T08:46:45;10.77;;;7.10;;
45684;SDS011;46836;48.388;16.210;2023-11-21T08:49:13;15.65;;;5.65;;
45684;SDS011;46836;48.388;16.210;2023-11-21T08:51:41;8.43;;;5.55;;
45684;SDS011;46836;48.388;16.210;2023-11-21T08:54:11;18.42;;;6.22;;
45684;SDS011;46836;48.388;16.210;2023-11-21T08:56:38;14.88;;;6.45;;
45684;SDS011;46836;48.388;16.210;2023-11-21T08:59:05;13.95;;;5.47;;
45684;SDS011;46836;48.388;16.210;2023-11-21T09:01:34;11.80;;;5.88;;
45684;SDS011;46836;48.388;16.210;2023-11-21T09:04:01;12.82;;;5.30;;
45684;SDS011;46836;48.388;16.210;2023-11-21T09:06:29;9.27;;;6.35;;
45684;SDS011;46836;48.388;16.210;2023-11-21T09:08:56;12.13;;;6.78;;
45684;SDS011;46836;48.388;16.210;2023-11-21T09:11:23;8.98;;;6.20;;
45684;SDS011;46836;48.388;16.210;2023-11-21T09:13:51;9.80;;;6.57;;
45684;SDS011;46836;48.388;16.210;2023-11-21T09:16:19;11.60;;;5.72;;
45684;SDS011;46836;48.388;16.210;2023-11-21T09:18:46;13.80;;;6.93;;
45684;SDS011;46836;48.388;16.210;2023-11-21T09:21:13;8.55;;;5.20;;
45684;SDS011;46836;48.388;16.210;2023-11-21T09:23:40;8.60;;;5.80;;
45684;SDS011;46836;48.388;16.210;2023-11-21T09:26:09;10.70;;;7.00;;
45684;SDS011;46836;48.388;16.210;2023-11-21T09:28:36;10.07;;;6.65;;
45684;SDS011;46836;48.388;16.210;2023-11-21T09:31:06;10.70;;;6.43;;
45684;SDS011;46836;48.388;16.210;2023-11-21T09:33:35;10.43;;;6.10;;
45684;SDS011;46836;48.388;16.210;2023-11-21T09:36:02;7.93;;;5.85;;
45684;SDS011;46836;48.388;16.210;2023-11-21T09:38:31;9.32;;;6.00;;
45684;SDS011;46836;48.388;16.210;2023-11-21T09:40:58;6.63;;;5.82;;
45684;SDS011;46836;48.388;16.210;2023-11-21T09:43:27;8.25;;;6.07;;
45684;SDS011;46836;48.388;16.210;2023-11-21T09:45:59;9.73;;;6.20;;
45684;SDS011;46836;48.388;16.210;2023-11-21T09:48:29;8.55;;;6.13;;
45684;SDS011;46836;48.388;16.210;2023-11-21T09:50:58;11.48;;;5.97;;
45684;SDS011;46836;48.388;16.210;2023-11-21T09:53:30;8.13;;;5.63;;
45684;SDS011;46836;48.388;16.210;2023-11-21T09:55:59;8.02;;;6.10;;
45684;SDS011;46836;48.388;16.210;2023-11-21T09:58:29;8.82;;;5.90;;
45684;SDS011;46836;48.388;16.210;2023-11-21T10:00:57;6.25;;;5.07;;
45684;SDS011;46836;48.388;16.210;2023-11-21T10:03:26;26.38;;;10.02;;
45684;SDS011;46836;48.388;16.210;2023-11-21T10:05:53;11.70;;;7.15;;
45684;SDS011;46836;48.388;16.210;2023-11-21T10:08:22;9.45;;;6.32;;
45684;SDS011;46836;48.388;16.210;2023-11-21T10:11:11;8.32;;;4.95;;
45684;SDS011;46836;48.388;16.210;2023-11-21T10:13:41;14.77;;;6.95;;
45684;SDS011;46836;48.388;16.210;2023-11-21T10:16:09;9.85;;;4.80;;
45684;SDS011;46836;48.388;16.210;2023-11-21T10:18:41;8.73;;;4.00;;
45684;SDS011;46836;48.388;16.210;2023-11-21T10:21:08;12.43;;;5.88;;
45684;SDS011;46836;48.388;16.210;2023-11-21T10:23:36;12.23;;;6.00;;
45684;SDS011;46836;48.388;16.210;2023-11-21T10:26:03;6.60;;;4.20;;
45684;SDS011;46836;48.388;16.210;2023-11-21T10:28:57;6.32;;;4.95;;
45684;SDS011;46836;48.388;16.210;2023-11-21T10:31:32;7.22;;;4.70;;
45684;SDS011;46836;48.388;16.210;2023-11-21T10:34:13;11.10;;;6.40;;
45684;SDS011;46836;48.388;16.210;2023-11-21T10:36:42;8.93;;;4.80;;
45684;SDS011;46836;48.388;16.210;2023-11-21T10:39:09;11.98;;;4.72;;
45684;SDS011;46836;48.388;16.210;2023-11-21T10:41:40;7.03;;;4.57;;
45684;SDS011;46836;48.388;16.210;2023-11-21T10:44:08;12.43;;;4.47;;
45684;SDS011;46836;48.388;16.210;2023-11-21T10:46:35;9.43;;;4.60;;
45684;SDS011;46836;48.388;16.210;2023-11-21T10:49:03;6.13;;;4.35;;
45684;SDS011;46836;48.388;16.210;2023-11-21T10:51:31;10.07;;;4.80;;
45684;SDS011;46836;48.388;16.210;2023-11-21T10:53:58;10.40;;;4.10;;
45684;SDS011;46836;48.388;16.210;2023-11-21T10:56:26;7.03;;;4.35;;
45684;SDS011;46836;48.388;16.210;2023-11-21T10:58:56;8.02;;;4.90;;
45684;SDS011;46836;48.388;16.210;2023-11-21T11:01:24;7.82;;;4.85;;
45684;SDS011;46836;48.388;16.210;2023-11-21T11:03:56;7.28;;;4.88;;
45684;SDS011;46836;48.388;16.210;2023-11-21T11:06:24;9.30;;;4.47;;
45684;SDS011;46836;48.388;16.210;2023-11-21T11:08:53;10.88;;;5.32;;
45684;SDS011;46836;48.388;16.210;2023-11-21T11:11:21;6.07;;;4.13;;
45684;SDS011;46836;48.388;16.210;2023-11-21T11:13:48;7.30;;;4.13;;
45684;SDS011;46836;48.388;16.210;2023-11-21T11:16:16;6.82;;;4.70;;
45684;SDS011;46836;48.388;16.210;2023-11-21T11:18:44;10.68;;;5.30;;
45684;SDS011;46836;48.388;16.210;2023-11-21T11:21:18;14.70;;;6.10;;
45684;SDS011;46836;48.388;16.210;2023-11-21T11:26:45;4.45;;;3.55;;
45684;SDS011;46836;48.388;16.210;2023-11-21T11:29:33;10.32;;;4.13;;
45684;SDS011;46836;48.388;16.210;2023-11-21T11:34:47;7.53;;;4.05;;
45684;SDS011;46836;48.388;16.210;2023-11-21T11:37:45;4.00;;;3.10;;
45684;SDS011;46836;48.388;16.210;2023-11-21T11:40:12;10.90;;;3.90;;
45684;SDS011;46836;48.388;16.210;2023-11-21T11:42:39;16.80;;;4.75;;
45684;SDS011;46836;48.388;16.210;2023-11-21T11:45:32;6.30;;;3.83;;
45684;SDS011;46836;48.388;16.210;2023-11-21T11:48:01;12.07;;;4.68;;
45684;SDS011;46836;48.388;16.210;2023-11-21T11:50:30;9.20;;;3.40;;
45684;SDS011;46836;48.388;16.210;2023-11-21T11:53:11;12.07;;;4.35;;
45684;SDS011;46836;48.388;16.210;2023-11-21T11:55:39;4.75;;;3.15;;
45684;SDS011;46836;48.388;16.210;2023-11-21T11:58:07;9.32;;;3.80;;
45684;SDS011;46836;48.388;16.210;2023-11-21T12:00:35;9.55;;;3.65;;
45684;SDS011;46836;48.388;16.210;2023-11-21T12:03:08;18.10;;;4.28;;
45684;SDS011;46836;48.388;16.210;2023-11-21T12:05:36;8.02;;;3.00;;
45684;SDS011;46836;48.388;16.210;2023-11-21T12:08:06;24.50;;;6.40;;
45684;SDS011;46836;48.388;16.210;2023-11-21T12:10:35;10.50;;;4.18;;
45684;SDS011;46836;48.388;16.210;2023-11-21T12:13:08;5.15;;;2.85;;
45684;SDS011;46836;48.388;16.210;2023-11-21T12:15:37;51.85;;;10.13;;
45684;SDS011;46836;48.388;16.210;2023-11-21T12:18:06;6.97;;;3.45;;
45684;SDS011;46836;48.388;16.210;2023-11-21T12:20:34;9.98;;;3.45;;
45684;SDS011;46836;48.388;16.210;2023-11-21T12:23:06;17.48;;;6.03;;
45684;SDS011;46836;48.388;16.210;2023-11-21T12:25:36;25.35;;;7.60;;
45684;SDS011;46836;48.388;16.210;2023-11-21T12:28:04;9.75;;;3.55;;
45684;SDS011;46836;48.388;16.210;2023-11-21T12:30:33;21.42;;;6.05;;
45684;SDS011;46836;48.388;16.210;2023-11-21T12:33:05;9.88;;;3.80;;
45684;SDS011;46836;48.388;16.210;2023-11-21T12:35:36;6.57;;;2.28;;
45684;SDS011;46836;48.388;16.210;2023-11-21T12:38:04;4.40;;;2.50;;
45684;SDS011;46836;48.388;16.210;2023-11-21T12:40:32;6.63;;;2.80;;
45684;SDS011;46836;48.388;16.210;2023-11-21T12:42:59;4.68;;;2.40;;
45684;SDS011;46836;48.388;16.210;2023-11-21T12:45:28;5.90;;;3.08;;
45684;SDS011;46836;48.388;16.210;2023-11-21T12:48:04;19.83;;;5.55;;
45684;SDS011;46836;48.388;16.210;2023-11-21T12:50:38;8.35;;;3.47;;
45684;SDS011;46836;48.388;16.210;2023-11-21T12:55:39;5.45;;;3.50;;
45684;SDS011;46836;48.388;16.210;2023-11-21T12:58:09;7.80;;;4.25;;
45684;SDS011;46836;48.388;16.210;2023-11-21T13:03:13;8.63;;;3.15;;
45684;SDS011;46836;48.388;16.210;2023-11-21T13:05:47;16.05;;;5.03;;
45684;SDS011;46836;48.388;16.210;2023-11-21T13:08:19;16.17;;;5.80;;
45684;SDS011;46836;48.388;16.210;2023-11-21T13:10:50;34.55;;;8.65;;
45684;SDS011;46836;48.388;16.210;2023-11-21T13:13:24;6.57;;;4.00;;
45684;SDS011;46836;48.388;16.210;2023-11-21T13:16:01;15.40;;;5.97;;
45684;SDS011;46836;48.388;16.210;2023-11-21T13:18:32;9.20;;;3.95;;
45684;SDS011;46836;48.388;16.210;2023-11-21T13:21:04;11.40;;;4.45;;
45684;SDS011;46836;48.388;16.210;2023-11-21T13:23:37;9.85;;;5.57;;
45684;SDS011;46836;48.388;16.210;2023-11-21T13:26:04;12.02;;;5.75;;
45684;SDS011;46836;48.388;16.210;2023-11-21T13:28:33;12.55;;;7.20;;
45684;SDS011;46836;48.388;16.210;2023-11-21T13:31:02;20.35;;;8.23;;
45684;SDS011;46836;48.388;16.210;2023-11-21T13:33:40;9.00;;;5.40;;
45684;SDS011;46836;48.388;16.210;2023-11-21T13:36:09;10.95;;;5.35;;
45684;SDS011;46836;48.388;16.210;2023-11-21T13:38:37;16.13;;;6.13;;
45684;SDS011;46836;48.388;16.210;2023-11-21T13:41:09;13.55;;;6.72;;
45684;SDS011;46836;48.388;16.210;2023-11-21T13:43:39;23.88;;;8.05;;
45684;SDS011;46836;48.388;16.210;2023-11-21T13:46:06;29.25;;;8.77;;
45684;SDS011;46836;48.388;16.210;2023-11-21T13:48:49;8.15;;;5.15;;
45684;SDS011;46836;48.388;16.210;2023-11-21T13:51:23;9.82;;;5.05;;
45684;SDS011;46836;48.388;16.210;2023-11-21T13:54:11;14.43;;;6.20;;
45684;SDS011;46836;48.388;16.210;2023-11-21T13:56:39;7.57;;;4.32;;
45684;SDS011;46836;48.388;16.210;2023-11-21T13:59:08;16.90;;;5.90;;
45684;SDS011;46836;48.388;16.210;2023-11-21T14:01:52;16.73;;;6.85;;
45684;SDS011;46836;48.388;16.210;2023-11-21T14:04:23;8.32;;;4.38;;
45684;SDS011;46836;48.388;16.210;2023-11-21T14:06:57;12.43;;;4.40;;
45684;SDS011;46836;48.388;16.210;2023-11-21T14:09:27;15.82;;;5.95;;
45684;SDS011;46836;48.388;16.210;2023-11-21T14:12:11;8.93;;;5.15;;
45684;SDS011;46836;48.388;16.210;2023-11-21T14:14:40;11.73;;;4.97;;
45684;SDS011;46836;48.388;16.210;2023-11-21T14:17:07;11.48;;;4.93;;
45684;SDS011;46836;48.388;16.210;2023-11-21T14:19:35;7.75;;;4.93;;
45684;SDS011;46836;48.388;16.210;2023-11-21T14:22:07;11.88;;;5.80;;
45684;SDS011;46836;48.388;16.210;2023-11-21T14:24:36;14.82;;;6.28;;
45684;SDS011;46836;48.388;16.210;2023-11-21T14:27:04;24.90;;;8.60;;
45684;SDS011;46836;48.388;16.210;2023-11-21T14:29:32;14.32;;;5.70;;
45684;SDS011;46836;48.388;16.210;2023-11-21T14:32:05;15.82;;;5.90;;
45684;SDS011;46836;48.388;16.210;2023-11-21T14:34:35;9.23;;;4.75;;
45684;SDS011;46836;48.388;16.210;2023-11-21T14:37:03;6.95;;;4.55;;
45684;SDS011;46836;48.388;16.210;2023-11-21T14:39:30;16.73;;;7.18;;
45684;SDS011;46836;48.388;16.210;2023-11-21T14:42:01;14.32;;;6.10;;
45684;SDS011;46836;48.388;16.210;2023-11-21T14:44:29;17.75;;;6.93;;
45684;SDS011;46836;48.388;16.210;2023-11-21T14:47:02;12.88;;;6.20;;
45684;SDS011;46836;48.388;16.210;2023-11-21T14:49:34;19.85;;;7.00;;